createdAt,value
2019-03-26T00:01:54.641Z,99.90
2019-03-26T00:04:24.518Z,99.90
2019-03-26T00:06:54.358Z,99.90
2019-03-26T00:09:24.252Z,99.90
2019-03-26T00:11:54.112Z,99.90
2019-03-26T00:14:23.941Z,99.90
2019-03-26T00:16:53.832Z,99.90
2019-03-26T00:19:23.644Z,99.90
2019-03-26T00:21:53.491Z,99.90
2019-03-26T00:24:23.348Z,99.90
2019-03-26T00:26:53.143Z,99.90
2019-03-26T00:29:23.044Z,99.90
2019-03-26T00:31:52.823Z,99.90
2019-03-26T00:34:22.714Z,99.90
2019-03-26T00:36:52.592Z,99.90
2019-03-26T00:39:22.537Z,99.90
2019-03-26T00:41:52.435Z,99.90
2019-03-26T00:44:22.271Z,99.90
2019-03-26T00:46:52.063Z,99.90
2019-03-26T00:49:21.965Z,99.90
2019-03-26T00:51:51.750Z,99.90
2019-03-26T00:54:21.680Z,99.90
2019-03-26T00:56:51.487Z,99.90
2019-03-26T00:59:21.340Z,99.90
2019-03-26T01:01:51.161Z,99.90
2019-03-26T01:04:32.223Z,99.90
2019-03-26T01:06:52.515Z,99.90
2019-03-26T01:09:22.401Z,99.90
2019-03-26T01:11:52.228Z,99.90
2019-03-26T01:14:22.189Z,99.90
2019-03-26T01:16:52.003Z,99.90
2019-03-26T01:19:21.815Z,99.90
2019-03-26T01:21:51.629Z,99.90
2019-03-26T01:24:21.470Z,99.90
2019-03-26T01:26:51.266Z,99.90
2019-03-26T01:29:21.171Z,99.90
2019-03-26T01:31:51.107Z,99.90
2019-03-26T01:34:21.012Z,99.90
2019-03-26T01:36:50.916Z,99.90
2019-03-26T01:39:20.795Z,99.90
2019-03-26T01:41:50.635Z,99.90
2019-03-26T01:44:20.464Z,99.90
2019-03-26T01:46:50.359Z,99.90
2019-03-26T01:49:20.209Z,99.90
2019-03-26T01:51:50.036Z,99.90
2019-03-26T01:54:19.906Z,99.90
2019-03-26T01:56:49.809Z,99.90
2019-03-26T01:59:19.666Z,99.90
2019-03-26T02:01:49.512Z,99.90
2019-03-26T02:04:19.335Z,99.90
2019-03-26T02:06:49.170Z,99.90
2019-03-26T02:09:18.982Z,99.90
2019-03-26T02:11:49.180Z,99.90
2019-03-26T02:14:18.974Z,99.90
2019-03-26T02:16:48.853Z,99.90
2019-03-26T02:19:18.631Z,99.90
2019-03-26T02:21:48.575Z,99.90
2019-03-26T02:24:18.374Z,99.90
2019-03-26T02:26:48.333Z,99.90
2019-03-26T02:29:18.197Z,99.90
2019-03-26T02:31:48.071Z,99.90
2019-03-26T02:34:17.936Z,99.90
2019-03-26T02:36:47.917Z,99.90
2019-03-26T02:39:17.793Z,99.90
2019-03-26T02:41:47.764Z,99.90
2019-03-26T02:44:17.552Z,99.90
2019-03-26T02:46:47.424Z,99.90
2019-03-26T02:49:17.289Z,99.90
2019-03-26T02:51:47.252Z,99.90
2019-03-26T02:54:17.128Z,99.90
2019-03-26T02:56:46.929Z,99.90
2019-03-26T02:59:16.838Z,99.90
2019-03-26T03:01:46.712Z,99.90
2019-03-26T03:04:16.590Z,99.90
2019-03-26T03:06:46.579Z,99.90
2019-03-26T03:09:16.489Z,99.90
2019-03-26T03:11:46.446Z,99.90
2019-03-26T03:14:16.351Z,99.90
2019-03-26T03:16:46.175Z,99.90
2019-03-26T03:19:16.479Z,99.90
2019-03-26T03:21:46.401Z,99.90
2019-03-26T03:24:16.411Z,99.90
2019-03-26T03:26:46.412Z,99.90
2019-03-26T03:29:16.254Z,99.90
2019-03-26T03:31:46.160Z,99.90
2019-03-26T03:34:15.999Z,99.90
2019-03-26T03:36:45.982Z,99.90
2019-03-26T03:39:15.812Z,99.90
2019-03-26T03:41:45.760Z,99.90
2019-03-26T03:44:15.570Z,99.90
2019-03-26T03:46:47.529Z,99.90
2019-03-26T03:49:20.446Z,99.90
2019-03-26T03:51:51.441Z,99.90
2019-03-26T03:54:21.938Z,99.90
2019-03-26T03:56:53.628Z,99.90
2019-03-26T03:59:24.479Z,99.90
2019-03-26T04:01:54.335Z,99.90
2019-03-26T04:04:24.129Z,99.90
2019-03-26T04:06:53.958Z,99.90
2019-03-26T04:09:23.800Z,99.90
2019-03-26T04:11:53.669Z,99.90
2019-03-26T04:14:23.470Z,99.90
2019-03-26T04:16:53.269Z,99.90
2019-03-26T04:19:23.192Z,99.90
2019-03-26T04:21:53.039Z,99.90
2019-03-26T04:24:22.833Z,99.90
2019-03-26T04:26:52.666Z,99.90
2019-03-26T04:29:22.449Z,99.90
2019-03-26T04:31:52.258Z,99.90
2019-03-26T04:34:22.766Z,99.90
2019-03-26T04:36:52.692Z,99.90
2019-03-26T04:39:22.536Z,99.90
2019-03-26T04:41:52.459Z,99.90
2019-03-26T04:44:22.250Z,99.90
2019-03-26T04:46:52.067Z,99.90
2019-03-26T04:49:21.859Z,99.90
2019-03-26T04:51:51.650Z,99.90
2019-03-26T04:54:21.444Z,99.90
2019-03-26T04:56:51.260Z,99.90
2019-03-26T04:59:21.052Z,99.90
2019-03-26T05:01:50.856Z,99.90
2019-03-26T05:04:20.719Z,99.90
2019-03-26T05:06:50.546Z,99.90
2019-03-26T05:09:20.359Z,99.90
2019-03-26T05:11:50.186Z,99.90
2019-03-26T05:14:19.970Z,99.90
2019-03-26T05:16:49.805Z,99.90
2019-03-26T05:19:19.595Z,99.90
2019-03-26T05:21:49.404Z,99.90
2019-03-26T05:24:19.191Z,99.90
2019-03-26T05:26:49.013Z,99.90
2019-03-26T05:29:18.803Z,99.90
2019-03-26T05:31:48.643Z,99.90
2019-03-26T05:34:18.429Z,99.90
2019-03-26T05:36:51.570Z,99.90
2019-03-26T05:39:19.670Z,99.90
2019-03-26T05:41:49.491Z,99.90
2019-03-26T05:44:19.350Z,99.90
2019-03-26T05:46:49.175Z,99.90
2019-03-26T05:49:18.971Z,99.90
2019-03-26T05:51:48.871Z,99.90
2019-03-26T05:54:18.675Z,99.90
2019-03-26T05:56:48.482Z,99.90
2019-03-26T05:59:18.295Z,99.90
2019-03-26T06:01:48.130Z,99.90
2019-03-26T06:04:17.938Z,99.90
2019-03-26T06:06:47.850Z,99.90
2019-03-26T06:09:17.630Z,99.90
2019-03-26T06:11:47.494Z,99.90
2019-03-26T06:14:17.363Z,99.90
2019-03-26T06:16:47.189Z,99.90
2019-03-26T06:19:16.994Z,99.90
2019-03-26T06:21:46.799Z,99.90
2019-03-26T06:24:16.595Z,99.90
2019-03-26T06:26:46.441Z,99.90
2019-03-26T06:29:16.248Z,99.90
2019-03-26T06:31:46.131Z,99.90
2019-03-26T06:34:15.936Z,99.90
2019-03-26T06:36:45.775Z,99.90
2019-03-26T06:39:15.624Z,99.90
2019-03-26T06:41:45.430Z,99.90
2019-03-26T06:44:15.231Z,99.90
2019-03-26T06:46:45.059Z,99.90
2019-03-26T06:49:14.921Z,99.90
2019-03-26T06:51:44.748Z,99.90
2019-03-26T06:54:14.651Z,99.90
2019-03-26T06:56:44.462Z,99.90
2019-03-26T06:59:14.348Z,99.90
2019-03-26T07:01:44.163Z,99.90
2019-03-26T07:04:13.961Z,99.90
2019-03-26T07:06:43.966Z,99.90
2019-03-26T07:09:13.828Z,99.90
2019-03-26T07:11:43.640Z,99.90
2019-03-26T07:14:13.460Z,99.90
2019-03-26T07:16:43.256Z,99.90
2019-03-26T07:19:13.071Z,99.90
2019-03-26T07:21:49.584Z,99.90
2019-03-26T07:24:14.474Z,99.90
2019-03-26T07:26:44.264Z,99.90
2019-03-26T07:29:14.064Z,99.90
2019-03-26T07:31:43.990Z,99.90
2019-03-26T07:34:13.798Z,99.90
2019-03-26T07:36:43.615Z,99.90
2019-03-26T07:39:13.515Z,99.90
2019-03-26T07:41:43.326Z,99.90
2019-03-26T07:44:13.243Z,99.90
2019-03-26T07:46:43.064Z,99.90
2019-03-26T07:49:12.883Z,99.60
2019-03-26T07:51:42.717Z,99.90
2019-03-26T07:54:12.636Z,99.90
2019-03-26T07:56:42.514Z,99.90
2019-03-26T07:59:12.343Z,99.90
2019-03-26T08:01:42.152Z,99.90
2019-03-26T08:04:12.667Z,99.90
2019-03-26T08:06:42.623Z,99.90
2019-03-26T08:09:12.505Z,99.90
2019-03-26T08:11:42.393Z,99.90
2019-03-26T08:14:12.280Z,99.90
2019-03-26T08:16:42.118Z,99.70
2019-03-26T08:19:11.930Z,99.80
2019-03-26T08:21:41.812Z,99.50
2019-03-26T08:24:11.622Z,99.80
2019-03-26T08:26:41.466Z,99.90
2019-03-26T08:29:11.320Z,99.90
2019-03-26T08:31:41.214Z,99.90
2019-03-26T08:34:11.079Z,99.90
2019-03-26T08:36:40.965Z,99.90
2019-03-26T08:39:10.895Z,99.90
2019-03-26T08:41:40.832Z,99.90
2019-03-26T08:44:10.663Z,99.90
2019-03-26T08:46:40.519Z,99.90
2019-03-26T08:49:10.326Z,99.90
2019-03-26T08:51:40.183Z,99.90
2019-03-26T08:54:10.084Z,99.90
2019-03-26T08:56:39.935Z,99.90
2019-03-26T08:59:16.964Z,99.80
2019-03-26T09:01:49.088Z,99.60
2019-03-26T09:04:18.904Z,98.90
2019-03-26T09:06:48.807Z,98.80
2019-03-26T09:09:18.605Z,99.30
2019-03-26T09:11:48.519Z,99.10
2019-03-26T09:14:18.390Z,98.70
2019-03-26T09:16:48.246Z,98.50
2019-03-26T09:19:18.049Z,98.20
2019-03-26T09:21:47.890Z,98.50
2019-03-26T09:24:17.755Z,98.90
2019-03-26T09:26:47.678Z,98.60
2019-03-26T09:29:17.498Z,98.40
2019-03-26T09:31:47.353Z,98.50
2019-03-26T09:34:17.185Z,98.50
2019-03-26T09:36:47.030Z,99.50
2019-03-26T09:39:16.823Z,99.70
2019-03-26T09:41:46.746Z,99.20
2019-03-26T09:44:16.572Z,98.60
2019-03-26T09:46:46.504Z,98.50
2019-03-26T09:49:16.395Z,98.50
2019-03-26T09:51:46.211Z,98.50
2019-03-26T09:54:16.018Z,99.00
2019-03-26T09:56:45.884Z,99.40
2019-03-26T09:59:15.699Z,98.50
2019-03-26T10:01:45.732Z,98.00
2019-03-26T10:04:15.540Z,98.10
2019-03-26T10:06:45.461Z,97.40
2019-03-26T10:09:15.269Z,96.30
2019-03-26T10:11:45.116Z,96.40
2019-03-26T10:14:15.096Z,96.70
2019-03-26T10:16:44.985Z,96.80
2019-03-26T10:19:17.026Z,96.40
2019-03-26T10:21:46.375Z,96.30
2019-03-26T10:24:16.234Z,96.30
2019-03-26T10:26:46.098Z,95.90
2019-03-26T10:29:29.557Z,95.20
2019-03-26T10:31:47.420Z,95.30
2019-03-26T10:34:17.566Z,95.50
2019-03-26T10:36:47.575Z,95.80
2019-03-26T10:39:17.446Z,95.50
2019-03-26T10:41:47.242Z,96.40
2019-03-26T10:44:17.058Z,96.00
2019-03-26T10:46:47.053Z,95.60
2019-03-26T10:49:16.920Z,95.30
2019-03-26T10:51:46.782Z,94.60
2019-03-26T10:54:16.658Z,94.40
2019-03-26T10:56:46.463Z,92.50
2019-03-26T10:59:16.299Z,93.80
2019-03-26T11:01:46.091Z,94.20
2019-03-26T11:04:15.964Z,93.80
2019-03-26T11:06:45.832Z,94.00
2019-03-26T11:09:24.042Z,94.50
2019-03-26T11:11:47.231Z,94.40
2019-03-26T11:14:17.055Z,94.60
2019-03-26T11:16:47.043Z,94.60
2019-03-26T11:19:16.907Z,94.90
2019-03-26T11:21:46.719Z,95.30
2019-03-26T11:24:16.580Z,94.60
2019-03-26T11:26:46.498Z,95.40
2019-03-26T11:29:16.322Z,94.80
2019-03-26T11:31:46.174Z,94.90
2019-03-26T11:34:16.082Z,93.60
2019-03-26T11:36:45.913Z,92.50
2019-03-26T11:39:15.738Z,91.90
2019-03-26T11:41:45.550Z,92.70
2019-03-26T11:44:15.363Z,92.50
2019-03-26T11:46:45.206Z,92.20
2019-03-26T11:49:15.122Z,91.90
2019-03-26T11:51:44.912Z,91.30
2019-03-26T11:54:14.740Z,90.20
2019-03-26T11:56:44.635Z,85.10
2019-03-26T11:59:14.540Z,82.00
2019-03-26T12:01:44.349Z,83.00
2019-03-26T12:04:14.247Z,81.90
2019-03-26T12:06:44.063Z,80.70
2019-03-26T12:09:14.064Z,80.20
2019-03-26T12:11:43.910Z,81.20
2019-03-26T12:14:13.739Z,81.90
2019-03-26T12:16:43.579Z,80.20
2019-03-26T12:19:13.446Z,80.80
2019-03-26T12:21:43.299Z,77.30
2019-03-26T12:24:13.227Z,77.80
2019-03-26T12:26:43.044Z,77.20
2019-03-26T12:29:12.873Z,76.40
2019-03-26T12:31:42.688Z,75.20
2019-03-26T12:34:12.609Z,76.50
2019-03-26T12:36:42.455Z,76.40
2019-03-26T12:39:12.371Z,78.30
2019-03-26T12:41:42.290Z,75.40
2019-03-26T12:44:12.133Z,76.90
2019-03-26T12:46:42.126Z,76.40
2019-03-26T12:49:12.021Z,78.50
2019-03-26T12:51:41.911Z,76.40
2019-03-26T12:54:11.797Z,78.00
2019-03-26T12:56:41.701Z,76.20
2019-03-26T12:59:11.579Z,73.80
2019-03-26T13:01:41.564Z,70.30
2019-03-26T13:04:12.852Z,66.90
2019-03-26T13:06:42.976Z,68.40
2019-03-26T13:09:12.938Z,66.90
2019-03-26T13:11:42.774Z,67.80
2019-03-26T13:14:12.581Z,64.40
2019-03-26T13:16:42.420Z,66.50
2019-03-26T13:19:12.284Z,66.30
2019-03-26T13:21:42.200Z,69.30
2019-03-26T13:24:12.083Z,71.30
2019-03-26T13:26:42.255Z,71.00
2019-03-26T13:29:12.058Z,70.20
2019-03-26T13:31:41.912Z,70.40
2019-03-26T13:34:11.778Z,71.30
2019-03-26T13:36:43.727Z,69.70
2019-03-26T13:39:13.579Z,71.90
2019-03-26T13:41:43.426Z,72.50
2019-03-26T13:44:13.298Z,73.90
2019-03-26T13:46:43.248Z,74.10
2019-03-26T13:49:13.159Z,73.30
2019-03-26T13:51:43.051Z,72.40
2019-03-26T13:54:12.949Z,71.90
2019-03-26T13:56:44.042Z,68.50
2019-03-26T13:59:13.893Z,67.80
2019-03-26T14:01:43.782Z,69.10
2019-03-26T14:04:13.644Z,70.00
2019-03-26T14:06:43.477Z,72.80
2019-03-26T14:09:13.475Z,74.10
2019-03-26T14:11:43.296Z,74.90
2019-03-26T14:14:13.210Z,76.00
2019-03-26T14:16:43.096Z,75.70
2019-03-26T14:19:13.093Z,75.30
2019-03-26T14:21:43.215Z,77.00
2019-03-26T14:24:13.798Z,77.30
2019-03-26T14:26:43.774Z,76.90
2019-03-26T14:29:13.651Z,77.40
2019-03-26T14:31:43.610Z,77.90
2019-03-26T14:34:13.543Z,75.90
2019-03-26T14:36:43.368Z,76.00
2019-03-26T14:39:13.200Z,75.70
2019-03-26T14:41:43.142Z,78.50
2019-03-26T14:44:13.196Z,77.60
2019-03-26T14:46:43.112Z,76.90
2019-03-26T14:49:17.339Z,76.60
2019-03-26T14:51:52.654Z,76.50
2019-03-26T14:54:23.724Z,73.50
2019-03-26T14:56:53.747Z,72.30
2019-03-26T14:59:23.725Z,70.30
2019-03-26T15:01:55.038Z,73.90
2019-03-26T15:04:25.047Z,75.80
2019-03-26T15:06:54.934Z,73.30
2019-03-26T15:09:24.826Z,76.40
2019-03-26T15:11:54.697Z,77.20
2019-03-26T15:14:24.549Z,78.60
2019-03-26T15:16:54.350Z,78.70
2019-03-26T15:19:24.247Z,80.10
2019-03-26T15:21:54.062Z,79.20
2019-03-26T15:24:23.915Z,79.40
2019-03-26T15:26:53.793Z,78.90
2019-03-26T15:29:23.669Z,80.10
2019-03-26T15:31:53.557Z,81.80
2019-03-26T15:34:35.660Z,82.80
2019-03-26T15:36:55.048Z,84.60
2019-03-26T15:39:25.042Z,84.60
2019-03-26T15:41:54.954Z,83.90
2019-03-26T15:44:24.803Z,83.70
2019-03-26T15:46:54.738Z,84.70
2019-03-26T15:49:24.571Z,83.70
2019-03-26T15:51:54.462Z,84.20
2019-03-26T15:54:24.313Z,84.00
2019-03-26T15:56:54.226Z,85.20
2019-03-26T15:59:24.032Z,85.70
2019-03-26T16:01:53.863Z,86.60
2019-03-26T16:04:23.975Z,86.40
2019-03-26T16:06:53.800Z,87.50
2019-03-26T16:09:25.992Z,88.20
2019-03-26T16:11:55.950Z,88.00
2019-03-26T16:14:28.122Z,89.20
2019-03-26T16:16:57.350Z,88.70
2019-03-26T16:19:32.802Z,89.90
2019-03-26T16:21:58.734Z,89.10
2019-03-26T16:24:28.598Z,89.10
2019-03-26T16:26:58.483Z,90.40
2019-03-26T16:29:28.295Z,90.30
2019-03-26T16:31:58.156Z,90.40
2019-03-26T16:34:27.983Z,89.90
2019-03-26T16:36:59.824Z,90.40
2019-03-26T16:39:29.333Z,90.90
2019-03-26T16:41:59.194Z,91.00
2019-03-26T16:44:28.975Z,91.00
2019-03-26T16:46:59.031Z,99.90
2019-03-26T16:49:28.832Z,92.20
2019-03-26T16:51:58.680Z,91.20
2019-03-26T16:54:28.478Z,91.10
2019-03-26T16:56:58.314Z,91.50
2019-03-26T16:59:28.145Z,91.90
2019-03-26T17:01:58.047Z,92.50
2019-03-26T17:04:27.852Z,93.00
2019-03-26T17:06:57.697Z,93.00
2019-03-26T17:09:27.513Z,92.90
2019-03-26T17:12:03.015Z,92.90
2019-03-26T17:14:28.874Z,92.90
2019-03-26T17:16:58.768Z,93.20
2019-03-26T17:19:28.614Z,93.50
2019-03-26T17:21:58.464Z,93.60
2019-03-26T17:24:28.370Z,93.90
2019-03-26T17:26:58.335Z,93.80
2019-03-26T17:29:28.209Z,94.20
2019-03-26T17:31:58.094Z,93.90
2019-03-26T17:34:27.908Z,94.20
2019-03-26T17:36:57.729Z,94.30
2019-03-26T17:39:27.535Z,94.20
2019-03-26T17:41:57.391Z,94.40
2019-03-26T17:44:27.262Z,94.60
2019-03-26T17:46:57.204Z,95.00
2019-03-26T17:49:27.042Z,95.10
2019-03-26T17:51:56.859Z,95.30
2019-03-26T17:54:26.654Z,95.30
2019-03-26T17:56:56.482Z,95.80
2019-03-26T17:59:26.301Z,95.80
2019-03-26T18:01:56.216Z,96.10
2019-03-26T18:04:26.132Z,96.40
2019-03-26T18:06:55.994Z,96.50
2019-03-26T18:09:25.814Z,96.60
2019-03-26T18:11:55.638Z,96.80
2019-03-26T18:14:25.510Z,97.00
2019-03-26T18:16:55.380Z,97.20
2019-03-26T18:19:25.248Z,97.30
2019-03-26T18:21:55.958Z,97.60
2019-03-26T18:24:25.849Z,97.60
2019-03-26T18:26:55.756Z,97.70
2019-03-26T18:29:25.569Z,97.70
2019-03-26T18:31:55.460Z,97.50
2019-03-26T18:34:25.265Z,98.00
2019-03-26T18:36:55.143Z,98.20
2019-03-26T18:39:24.938Z,98.30
2019-03-26T18:41:54.746Z,98.20
2019-03-26T18:44:24.546Z,98.40
2019-03-26T18:46:54.473Z,98.60
2019-03-26T18:49:24.266Z,98.60
2019-03-26T18:51:54.106Z,98.90
2019-03-26T18:54:23.914Z,99.10
2019-03-26T18:56:53.703Z,99.20
2019-03-26T18:59:23.500Z,99.50
2019-03-26T19:01:53.348Z,99.40
2019-03-26T19:04:23.208Z,99.70
2019-03-26T19:06:53.125Z,99.70
2019-03-26T19:09:22.952Z,99.80
2019-03-26T19:11:52.772Z,99.90
2019-03-26T19:14:22.563Z,99.80
2019-03-26T19:16:52.366Z,99.90
2019-03-26T19:19:22.186Z,99.90
2019-03-26T19:21:52.030Z,99.90
2019-03-26T19:24:21.861Z,99.90
2019-03-26T19:26:51.761Z,99.90
2019-03-26T19:29:21.583Z,99.90
2019-03-26T19:31:51.453Z,99.90
2019-03-26T19:34:21.259Z,99.90
2019-03-26T19:36:51.147Z,99.90
2019-03-26T19:39:20.997Z,99.90
2019-03-26T19:41:50.927Z,99.90
2019-03-26T19:44:20.727Z,99.90
2019-03-26T19:46:50.615Z,99.90
2019-03-26T19:49:20.481Z,99.90
2019-03-26T19:51:50.345Z,99.90
2019-03-26T19:54:20.212Z,99.90
2019-03-26T19:56:50.129Z,99.90
2019-03-26T19:59:19.929Z,99.90
2019-03-26T20:01:49.796Z,99.90
2019-03-26T20:04:19.690Z,99.90
2019-03-26T20:06:49.525Z,99.90
2019-03-26T20:09:19.412Z,99.90
2019-03-26T20:11:49.253Z,99.90
2019-03-26T20:14:19.065Z,99.90
2019-03-26T20:16:48.950Z,99.90
2019-03-26T20:19:18.742Z,99.90
2019-03-26T20:21:49.966Z,99.90
2019-03-26T20:24:20.018Z,99.90
2019-03-26T20:26:50.929Z,99.90
2019-03-26T20:29:21.290Z,99.90
2019-03-26T20:31:51.125Z,99.90
2019-03-26T20:34:21.131Z,99.90
2019-03-26T20:36:50.970Z,99.90
2019-03-26T20:39:20.863Z,99.90
2019-03-26T20:41:50.670Z,99.90
2019-03-26T20:44:20.483Z,99.90
2019-03-26T20:46:50.318Z,99.90
2019-03-26T20:49:20.271Z,99.90
2019-03-26T20:51:50.107Z,99.90
2019-03-26T20:54:20.291Z,99.90
2019-03-26T20:56:50.159Z,99.90
2019-03-26T20:59:20.002Z,99.90
2019-03-26T21:01:49.869Z,99.90
2019-03-26T21:04:23.026Z,99.90
2019-03-26T21:06:52.993Z,99.90
2019-03-26T21:09:22.817Z,99.90
2019-03-26T21:11:52.830Z,99.90
2019-03-26T21:14:22.626Z,99.90
2019-03-26T21:16:54.073Z,99.90
2019-03-26T21:19:23.941Z,99.90
2019-03-26T21:21:53.881Z,99.90
2019-03-26T21:24:23.757Z,99.90
2019-03-26T21:26:53.690Z,99.90
2019-03-26T21:29:23.610Z,99.90
2019-03-26T21:31:53.494Z,99.90
2019-03-26T21:34:30.333Z,99.90
2019-03-26T21:36:55.860Z,99.90
2019-03-26T21:39:25.677Z,99.90
2019-03-26T21:41:55.478Z,99.90
2019-03-26T21:44:25.270Z,99.90
2019-03-26T21:46:55.125Z,99.90
2019-03-26T21:49:32.522Z,99.90
2019-03-26T21:52:02.493Z,99.90
2019-03-26T21:54:32.490Z,99.90
2019-03-26T21:57:02.442Z,99.90
2019-03-26T21:59:32.330Z,99.90
2019-03-26T22:02:02.145Z,99.90
2019-03-26T22:04:32.048Z,99.90
2019-03-26T22:07:01.873Z,99.90
2019-03-26T22:09:31.674Z,99.90
2019-03-26T22:12:01.490Z,99.90
2019-03-26T22:14:31.307Z,99.90
2019-03-26T22:17:01.138Z,99.90
2019-03-26T22:19:30.927Z,99.90
2019-03-26T22:22:00.735Z,99.90
2019-03-26T22:25:12.012Z,99.90
2019-03-26T22:27:41.830Z,99.90
2019-03-26T22:30:13.006Z,99.90
2019-03-26T22:32:43.479Z,99.90
2019-03-26T22:35:13.844Z,99.90
2019-03-26T22:37:44.067Z,99.90
2019-03-26T22:40:14.881Z,99.90
2019-03-26T22:42:44.961Z,99.90
2019-03-26T22:45:15.813Z,99.90
2019-03-26T22:47:45.873Z,99.90
2019-03-26T22:50:17.809Z,99.90
2019-03-26T22:52:47.750Z,99.90
2019-03-26T22:55:18.222Z,99.90
2019-03-26T22:57:49.195Z,99.90
2019-03-26T23:00:20.406Z,99.90
2019-03-26T23:02:50.737Z,99.90
2019-03-26T23:05:21.087Z,99.90
2019-03-26T23:07:51.080Z,99.90
2019-03-26T23:10:21.524Z,99.90
2019-03-26T23:12:51.986Z,99.90
2019-03-26T23:15:24.483Z,99.90
2019-03-26T23:17:55.178Z,99.90
2019-03-26T23:20:25.376Z,99.90
2019-03-26T23:22:55.769Z,99.90
2019-03-26T23:25:26.186Z,99.90
2019-03-26T23:27:56.468Z,99.90
2019-03-26T23:30:27.010Z,99.90
2019-03-26T23:32:57.238Z,99.90
2019-03-26T23:35:27.571Z,99.90
2019-03-26T23:37:58.520Z,99.90
2019-03-26T23:40:28.831Z,99.90
2019-03-26T23:42:59.211Z,99.90
2019-03-26T23:45:29.473Z,99.90
2019-03-26T23:47:59.758Z,99.90
2019-03-26T23:50:29.892Z,99.90
2019-03-26T23:53:00.286Z,99.90
2019-03-26T23:55:30.673Z,99.90
2019-03-26T23:58:00.858Z,99.90
